createdAt,value
2022-11-20T00:01:30.045Z,6.30
2022-11-20T00:03:58.656Z,6.07
2022-11-20T00:06:25.871Z,7.00
2022-11-20T00:08:53.153Z,6.00
2022-11-20T00:11:20.916Z,5.50
2022-11-20T00:13:48.753Z,6.30
2022-11-20T00:16:16.700Z,5.57
2022-11-20T00:18:44.904Z,5.17
2022-11-20T00:21:13.259Z,5.97
2022-11-20T00:23:40.407Z,5.00
2022-11-20T00:26:08.481Z,5.20
2022-11-20T00:28:36.412Z,5.40
2022-11-20T00:31:10.245Z,5.90
2022-11-20T00:33:37.482Z,5.40
2022-11-20T00:36:05.362Z,5.03
2022-11-20T00:38:33.005Z,5.93
2022-11-20T00:41:00.690Z,6.47
2022-11-20T00:43:27.934Z,5.33
2022-11-20T00:46:01.264Z,4.77
2022-11-20T00:48:28.542Z,5.07
2022-11-20T00:50:55.900Z,5.20
2022-11-20T00:53:23.026Z,5.50
2022-11-20T00:56:00.079Z,4.80
2022-11-20T00:58:29.903Z,5.60
2022-11-20T01:01:02.022Z,5.00
2022-11-20T01:03:29.193Z,4.83
2022-11-20T01:05:58.616Z,5.80
2022-11-20T01:08:25.747Z,5.10
2022-11-20T01:10:52.961Z,4.90
2022-11-20T01:13:38.346Z,5.17
2022-11-20T01:16:06.508Z,5.03
2022-11-20T01:18:35.957Z,4.90
2022-11-20T01:21:07.079Z,4.83
2022-11-20T01:23:34.911Z,5.17
2022-11-20T01:26:03.988Z,5.47
2022-11-20T01:28:33.615Z,4.83
2022-11-20T01:31:00.747Z,4.67
2022-11-20T01:33:28.078Z,5.20
2022-11-20T01:35:55.218Z,5.03
2022-11-20T01:38:25.376Z,5.43
2022-11-20T01:41:00.658Z,4.17
2022-11-20T01:43:27.834Z,5.57
2022-11-20T01:46:01.039Z,5.53
2022-11-20T01:48:41.409Z,4.70
2022-11-20T01:51:08.988Z,5.10
2022-11-20T01:53:36.515Z,4.70
2022-11-20T01:56:03.865Z,5.13
2022-11-20T01:58:32.219Z,6.00
2022-11-20T02:01:05.787Z,5.20
2022-11-20T02:03:32.978Z,5.13
2022-11-20T02:06:03.083Z,5.37
2022-11-20T02:08:30.386Z,4.60
2022-11-20T02:10:57.478Z,4.30
2022-11-20T02:13:43.376Z,4.10
2022-11-20T02:16:11.227Z,5.30
2022-11-20T02:18:38.335Z,5.27
2022-11-20T02:21:08.596Z,4.87
2022-11-20T02:23:40.536Z,5.07
2022-11-20T02:26:08.328Z,5.40
2022-11-20T02:28:35.466Z,5.00
2022-11-20T02:31:05.227Z,5.00
2022-11-20T02:33:32.472Z,5.43
2022-11-20T02:35:59.550Z,4.87
2022-11-20T02:38:26.640Z,5.50
2022-11-20T02:40:55.733Z,4.97
2022-11-20T02:43:23.267Z,5.17
2022-11-20T02:45:50.427Z,5.47
2022-11-20T02:48:17.544Z,6.00
2022-11-20T02:50:44.662Z,5.57
2022-11-20T02:53:11.812Z,5.30
2022-11-20T02:55:38.921Z,5.03
2022-11-20T02:58:05.998Z,4.97
2022-11-20T03:00:33.226Z,5.50
2022-11-20T03:03:00.328Z,5.00
2022-11-20T03:05:27.485Z,5.37
2022-11-20T03:07:54.573Z,5.20
2022-11-20T03:10:21.637Z,5.20
2022-11-20T03:12:48.779Z,5.33
2022-11-20T03:15:15.906Z,4.80
2022-11-20T03:17:43.025Z,4.10
2022-11-20T03:20:10.411Z,5.00
2022-11-20T03:22:37.615Z,4.63
2022-11-20T03:25:05.087Z,5.10
2022-11-20T03:27:35.557Z,4.43
2022-11-20T03:30:02.848Z,4.77
2022-11-20T03:32:29.954Z,4.60
2022-11-20T03:34:57.094Z,4.43
2022-11-20T03:37:24.189Z,4.93
2022-11-20T03:39:51.282Z,4.83
2022-11-20T03:42:37.080Z,4.60
2022-11-20T03:45:04.504Z,4.90
2022-11-20T03:47:31.583Z,4.03
2022-11-20T03:49:58.671Z,4.87
2022-11-20T03:52:25.747Z,4.47
2022-11-20T03:54:52.982Z,4.40
2022-11-20T03:57:20.057Z,4.70
2022-11-20T03:59:47.284Z,4.37
2022-11-20T04:02:14.482Z,4.57
2022-11-20T04:04:41.633Z,4.27
2022-11-20T04:07:08.758Z,4.17
2022-11-20T04:09:35.890Z,4.00
2022-11-20T04:12:03.035Z,3.93
2022-11-20T04:14:30.123Z,4.00
2022-11-20T04:16:57.290Z,4.10
2022-11-20T04:19:24.467Z,4.13
2022-11-20T04:21:51.640Z,4.03
2022-11-20T04:24:18.880Z,4.50
2022-11-20T04:26:46.017Z,4.33
2022-11-20T04:29:13.245Z,4.80
2022-11-20T04:31:40.430Z,4.33
2022-11-20T04:34:08.025Z,4.93
2022-11-20T04:36:35.170Z,4.87
2022-11-20T04:39:03.181Z,4.40
2022-11-20T04:41:31.263Z,4.20
2022-11-20T04:44:04.382Z,5.10
2022-11-20T04:46:35.366Z,5.00
2022-11-20T04:49:02.534Z,5.33
2022-11-20T04:51:29.618Z,4.00
2022-11-20T04:53:56.811Z,4.43
2022-11-20T04:56:23.924Z,4.30
2022-11-20T04:58:51.099Z,4.90
2022-11-20T05:01:24.654Z,4.03
2022-11-20T05:03:51.988Z,4.10
2022-11-20T05:06:19.899Z,4.43
2022-11-20T05:08:47.096Z,4.40
2022-11-20T05:11:18.588Z,4.67
2022-11-20T05:13:45.692Z,5.03
2022-11-20T05:16:16.931Z,4.33
2022-11-20T05:18:44.358Z,4.20
2022-11-20T05:21:11.652Z,4.63
2022-11-20T05:23:38.880Z,3.50
2022-11-20T05:26:06.711Z,4.60
2022-11-20T05:28:33.895Z,4.03
2022-11-20T05:31:27.715Z,3.93
2022-11-20T05:33:55.650Z,3.80
2022-11-20T05:36:22.776Z,4.80
2022-11-20T05:38:51.078Z,4.17
2022-11-20T05:41:19.387Z,4.70
2022-11-20T05:43:46.846Z,4.63
2022-11-20T05:46:14.650Z,4.30
2022-11-20T05:48:42.055Z,4.40
2022-11-20T05:51:09.771Z,4.27
2022-11-20T05:53:36.983Z,4.70
2022-11-20T05:56:06.749Z,4.27
2022-11-20T05:58:33.981Z,4.20
2022-11-20T06:01:14.531Z,3.37
2022-11-20T06:03:43.271Z,4.33
2022-11-20T06:06:12.625Z,4.60
2022-11-20T06:08:39.735Z,3.60
2022-11-20T06:11:07.440Z,3.90
2022-11-20T06:13:37.912Z,3.60
2022-11-20T06:16:07.969Z,4.10
2022-11-20T06:18:35.173Z,4.17
2022-11-20T06:21:06.222Z,3.50
2022-11-20T06:23:33.459Z,4.37
2022-11-20T06:26:07.658Z,3.60
2022-11-20T06:28:34.951Z,3.77
2022-11-20T06:31:02.106Z,3.70
2022-11-20T06:33:29.191Z,3.93
2022-11-20T06:36:01.648Z,3.53
2022-11-20T06:38:29.696Z,3.90
2022-11-20T06:40:58.351Z,4.60
2022-11-20T06:43:26.491Z,4.30
2022-11-20T06:45:54.650Z,4.43
2022-11-20T06:48:21.931Z,4.83
2022-11-20T06:50:49.065Z,4.00
2022-11-20T06:53:16.728Z,3.77
2022-11-20T06:55:47.181Z,4.83
2022-11-20T06:58:14.926Z,4.50
2022-11-20T07:00:42.114Z,5.00
2022-11-20T07:03:09.839Z,4.67
2022-11-20T07:05:37.108Z,5.07
2022-11-20T07:08:04.580Z,4.30
2022-11-20T07:10:31.802Z,4.33
2022-11-20T07:12:58.924Z,5.07
2022-11-20T07:15:26.527Z,6.37
2022-11-20T07:17:53.773Z,4.53
2022-11-20T07:20:20.850Z,4.57
2022-11-20T07:22:51.027Z,6.33
2022-11-20T07:25:18.253Z,5.30
2022-11-20T07:27:45.387Z,5.10
2022-11-20T07:30:12.944Z,4.13
2022-11-20T07:32:40.011Z,5.00
2022-11-20T07:35:07.350Z,5.00
2022-11-20T07:37:39.936Z,5.10
2022-11-20T07:40:07.192Z,4.50
2022-11-20T07:42:34.264Z,3.97
2022-11-20T07:45:01.367Z,5.23
2022-11-20T07:47:28.543Z,4.27
2022-11-20T07:49:57.940Z,3.20
2022-11-20T07:52:25.013Z,4.43
2022-11-20T07:54:52.141Z,3.60
2022-11-20T07:57:20.489Z,4.03
2022-11-20T07:59:50.386Z,4.03
2022-11-20T08:02:17.508Z,4.97
2022-11-20T08:04:44.607Z,4.10
2022-11-20T08:07:11.824Z,8.70
2022-11-20T08:09:39.154Z,4.07
2022-11-20T08:12:25.466Z,15.83
2022-11-20T08:14:52.598Z,6.90
2022-11-20T08:17:19.783Z,9.30
2022-11-20T08:19:46.908Z,4.83
2022-11-20T08:22:14.090Z,7.60
2022-11-20T08:24:42.094Z,6.50
2022-11-20T08:27:09.298Z,13.50
2022-11-20T08:29:36.508Z,3.90
2022-11-20T08:32:03.618Z,10.00
2022-11-20T08:34:30.708Z,10.13
2022-11-20T08:36:57.941Z,5.40
2022-11-20T08:39:27.702Z,9.03
2022-11-20T08:41:55.028Z,5.90
2022-11-20T08:44:22.176Z,4.97
2022-11-20T08:46:49.536Z,7.43
2022-11-20T08:49:16.711Z,7.70
2022-11-20T08:51:44.027Z,8.97
2022-11-20T08:54:11.492Z,5.90
2022-11-20T08:56:38.687Z,6.30
2022-11-20T08:59:43.355Z,6.63
2022-11-20T09:01:53.032Z,6.83
2022-11-20T09:04:20.405Z,7.43
2022-11-20T09:06:51.913Z,5.63
2022-11-20T09:09:22.631Z,6.20
2022-11-20T09:11:51.031Z,4.73
2022-11-20T09:14:18.205Z,4.27
2022-11-20T09:16:46.785Z,4.60
2022-11-20T09:19:34.496Z,4.60
2022-11-20T09:22:01.139Z,4.90
2022-11-20T09:24:28.956Z,4.50
2022-11-20T09:26:56.092Z,4.20
2022-11-20T09:29:23.678Z,5.70
2022-11-20T09:31:51.043Z,4.40
2022-11-20T09:34:18.248Z,4.50
2022-11-20T09:36:46.027Z,4.73
2022-11-20T09:39:13.119Z,4.43
2022-11-20T09:41:50.737Z,4.13
2022-11-20T09:44:26.984Z,4.27
2022-11-20T09:47:01.003Z,4.10
2022-11-20T09:49:32.382Z,3.07
2022-11-20T09:52:07.863Z,4.40
2022-11-20T09:54:38.287Z,4.37
2022-11-20T09:57:07.012Z,3.07
2022-11-20T09:59:35.807Z,3.80
2022-11-20T10:02:03.088Z,3.20
2022-11-20T10:04:31.475Z,3.50
2022-11-20T10:09:56.780Z,2.07
2022-11-20T10:12:23.866Z,3.03
2022-11-20T10:14:53.900Z,2.40
2022-11-20T10:17:35.994Z,3.03
2022-11-20T10:20:14.304Z,3.20
2022-11-20T10:22:54.054Z,3.77
2022-11-20T10:25:21.672Z,2.47
2022-11-20T10:28:07.409Z,4.97
2022-11-20T10:30:36.734Z,3.77
2022-11-20T10:33:08.120Z,3.43
2022-11-20T10:35:50.786Z,3.77
2022-11-20T10:38:27.873Z,4.63
2022-11-20T10:41:18.092Z,4.17
2022-11-20T10:43:45.200Z,3.17
2022-11-20T10:46:14.475Z,4.67
2022-11-20T10:48:41.614Z,3.03
2022-11-20T10:51:15.095Z,2.73
2022-11-20T10:54:02.447Z,9.73
2022-11-20T10:56:29.639Z,9.53
2022-11-20T10:58:56.758Z,4.10
2022-11-20T11:01:24.607Z,2.83
2022-11-20T11:03:52.807Z,7.30
2022-11-20T11:06:26.162Z,4.00
2022-11-20T11:08:53.718Z,12.10
2022-11-20T11:11:24.215Z,3.87
2022-11-20T11:13:51.617Z,2.83
2022-11-20T11:16:27.955Z,10.10
2022-11-20T11:19:05.235Z,6.67
2022-11-20T11:21:32.339Z,9.57
2022-11-20T11:24:26.854Z,7.30
2022-11-20T11:27:00.200Z,10.77
2022-11-20T11:29:30.458Z,7.47
2022-11-20T11:32:14.221Z,5.53
2022-11-20T11:34:41.333Z,4.77
2022-11-20T11:37:15.277Z,3.30
2022-11-20T11:39:43.348Z,2.23
2022-11-20T11:42:12.604Z,2.60
2022-11-20T11:44:58.305Z,3.43
2022-11-20T11:47:33.222Z,3.40
2022-11-20T11:50:03.449Z,3.37
2022-11-20T11:52:30.522Z,2.90
2022-11-20T11:54:58.908Z,4.23
2022-11-20T11:57:26.016Z,3.00
2022-11-20T11:59:53.325Z,3.10
2022-11-20T12:02:39.020Z,2.03
2022-11-20T12:05:20.046Z,2.33
2022-11-20T12:08:12.362Z,3.60
2022-11-20T12:10:47.761Z,2.00
2022-11-20T12:13:27.231Z,2.20
2022-11-20T12:15:54.776Z,3.83
2022-11-20T12:18:22.741Z,2.77
2022-11-20T12:21:08.507Z,2.40
2022-11-20T12:23:38.492Z,3.67
2022-11-20T12:26:07.699Z,5.10
2022-11-20T12:28:37.983Z,2.53
2022-11-20T12:31:05.093Z,2.70
2022-11-20T12:33:32.175Z,3.13
2022-11-20T12:36:11.766Z,3.60
2022-11-20T12:38:47.816Z,2.77
2022-11-20T12:41:14.964Z,2.20
2022-11-20T12:44:26.841Z,2.10
2022-11-20T12:47:14.269Z,7.37
2022-11-20T12:49:58.928Z,25.33
2022-11-20T12:52:44.582Z,5.43
2022-11-20T12:55:30.291Z,29.30
2022-11-20T12:58:03.552Z,3.70
2022-11-20T13:00:30.625Z,18.43
2022-11-20T13:03:05.082Z,9.97
2022-11-20T13:05:32.169Z,4.03
2022-11-20T13:07:59.311Z,11.70
2022-11-20T13:10:29.128Z,23.43
2022-11-20T13:13:01.477Z,19.03
2022-11-20T13:15:35.826Z,9.80
2022-11-20T13:18:03.482Z,4.97
2022-11-20T13:20:30.581Z,10.97
2022-11-20T13:23:00.792Z,4.03
2022-11-20T13:25:28.874Z,3.37
2022-11-20T13:27:56.296Z,9.57
2022-11-20T13:30:24.175Z,4.43
2022-11-20T13:32:55.157Z,6.67
2022-11-20T13:35:26.156Z,6.20
2022-11-20T13:38:12.424Z,9.80
2022-11-20T13:40:40.685Z,3.73
2022-11-20T13:43:20.131Z,7.10
2022-11-20T13:45:57.026Z,6.27
2022-11-20T13:48:25.028Z,2.40
2022-11-20T13:50:56.260Z,3.00
2022-11-20T13:53:30.834Z,4.37
2022-11-20T13:56:02.700Z,2.57
2022-11-20T13:58:35.582Z,3.70
2022-11-20T14:01:09.024Z,4.17
2022-11-20T14:04:05.798Z,2.90
2022-11-20T14:06:33.523Z,2.73
2022-11-20T14:09:00.932Z,2.67
2022-11-20T14:11:31.447Z,3.17
2022-11-20T14:14:04.024Z,5.10
2022-11-20T14:16:32.167Z,6.50
2022-11-20T14:18:59.366Z,4.07
2022-11-20T14:21:30.475Z,3.67
2022-11-20T14:24:07.687Z,3.10
2022-11-20T14:26:35.017Z,3.40
2022-11-20T14:29:02.208Z,2.50
2022-11-20T14:31:29.296Z,2.80
2022-11-20T14:33:56.400Z,5.40
2022-11-20T14:36:24.467Z,4.53
2022-11-20T14:38:52.082Z,4.33
2022-11-20T14:41:20.582Z,4.37
2022-11-20T14:43:52.122Z,11.60
2022-11-20T14:46:19.208Z,9.40
2022-11-20T14:48:47.603Z,10.67
2022-11-20T14:51:33.572Z,9.03
2022-11-20T14:54:11.275Z,15.13
2022-11-20T14:56:38.457Z,7.47
2022-11-20T14:59:05.605Z,6.67
2022-11-20T15:01:33.220Z,3.57
2022-11-20T15:04:18.214Z,4.80
2022-11-20T15:06:58.602Z,3.40
2022-11-20T15:09:25.889Z,3.70
2022-11-20T15:12:02.293Z,3.40
2022-11-20T15:14:29.744Z,4.83
2022-11-20T15:16:56.817Z,4.17
2022-11-20T15:19:24.776Z,4.53
2022-11-20T15:21:51.899Z,5.27
2022-11-20T15:24:19.062Z,4.83
2022-11-20T15:26:46.277Z,4.57
2022-11-20T15:29:14.091Z,11.73
2022-11-20T15:31:42.575Z,14.77
2022-11-20T15:34:11.613Z,37.50
2022-11-20T15:36:38.754Z,16.73
2022-11-20T15:39:08.082Z,15.60
2022-11-20T15:41:38.363Z,14.00
2022-11-20T15:44:05.700Z,10.67
2022-11-20T15:46:38.284Z,5.07
2022-11-20T15:49:05.463Z,7.07
2022-11-20T15:51:33.480Z,5.70
2022-11-20T15:54:00.590Z,7.80
2022-11-20T15:56:27.675Z,13.13
2022-11-20T15:58:55.031Z,8.17
2022-11-20T16:01:25.212Z,11.93
2022-11-20T16:03:52.351Z,11.70
2022-11-20T16:06:19.459Z,11.83
2022-11-20T16:08:46.976Z,14.97
2022-11-20T16:11:14.410Z,29.10
2022-11-20T16:14:00.538Z,29.57
2022-11-20T16:16:29.750Z,56.93
2022-11-20T16:18:56.854Z,32.70
2022-11-20T16:21:33.257Z,21.30
2022-11-20T16:24:00.963Z,18.43
2022-11-20T16:26:28.178Z,7.43
2022-11-20T16:28:55.503Z,13.13
2022-11-20T16:31:22.673Z,7.87
2022-11-20T16:33:56.303Z,10.83
2022-11-20T16:36:23.979Z,3.50
2022-11-20T16:38:54.434Z,6.63
2022-11-20T16:41:21.622Z,5.47
2022-11-20T16:43:49.801Z,4.50
2022-11-20T16:46:17.348Z,6.47
2022-11-20T16:48:44.435Z,9.87
2022-11-20T16:51:12.219Z,8.10
2022-11-20T16:53:39.646Z,5.00
2022-11-20T16:56:17.382Z,4.70
2022-11-20T16:58:47.759Z,3.97
2022-11-20T17:01:15.730Z,3.60
2022-11-20T17:03:43.223Z,2.47
2022-11-20T17:06:16.919Z,3.13
2022-11-20T17:08:44.067Z,3.40
2022-11-20T17:11:11.952Z,4.50
2022-11-20T17:13:40.061Z,4.97
2022-11-20T17:16:08.066Z,5.40
2022-11-20T17:18:35.199Z,5.97
2022-11-20T17:21:05.734Z,3.57
2022-11-20T17:23:33.232Z,8.33
2022-11-20T17:26:04.311Z,21.10
2022-11-20T17:28:34.224Z,13.40
2022-11-20T17:31:05.385Z,19.40
2022-11-20T17:33:32.521Z,18.70
2022-11-20T17:35:59.628Z,12.47
2022-11-20T17:38:26.704Z,16.77
2022-11-20T17:40:53.814Z,25.23
2022-11-20T17:43:20.887Z,9.67
2022-11-20T17:45:47.996Z,9.13
2022-11-20T17:48:15.102Z,7.70
2022-11-20T17:50:42.361Z,6.13
2022-11-20T17:53:09.484Z,10.60
2022-11-20T17:55:55.945Z,10.90
2022-11-20T17:58:24.186Z,13.60
2022-11-20T18:00:51.364Z,11.30
2022-11-20T18:03:18.487Z,7.63
2022-11-20T18:05:45.614Z,6.43
2022-11-20T18:08:12.742Z,5.57
2022-11-20T18:10:39.969Z,6.97
2022-11-20T18:13:07.147Z,8.13
2022-11-20T18:15:35.948Z,18.70
2022-11-20T18:18:03.102Z,15.87
2022-11-20T18:20:33.977Z,11.70
2022-11-20T18:23:03.733Z,18.20
2022-11-20T18:25:30.853Z,25.13
2022-11-20T18:27:58.048Z,19.50
2022-11-20T18:30:28.343Z,23.17
2022-11-20T18:32:55.721Z,24.67
2022-11-20T18:35:22.854Z,36.40
2022-11-20T18:37:50.034Z,56.93
2022-11-20T18:40:17.209Z,57.77
2022-11-20T18:43:03.260Z,61.07
2022-11-20T18:45:30.555Z,90.67
2022-11-20T18:47:57.668Z,35.90
2022-11-20T18:50:24.920Z,46.90
2022-11-20T18:52:52.054Z,29.27
2022-11-20T18:55:19.289Z,31.50
2022-11-20T18:57:46.833Z,10.90
2022-11-20T19:00:14.205Z,8.20
2022-11-20T19:02:43.235Z,7.37
2022-11-20T19:05:14.021Z,7.33
2022-11-20T19:07:41.464Z,5.30
2022-11-20T19:10:08.736Z,4.20
2022-11-20T19:12:36.051Z,4.53
2022-11-20T19:15:03.220Z,5.03
2022-11-20T19:17:30.331Z,4.40
2022-11-20T19:19:57.477Z,4.60
2022-11-20T19:22:24.571Z,3.80
2022-11-20T19:24:51.711Z,5.00
2022-11-20T19:27:18.868Z,5.70
2022-11-20T19:29:46.041Z,6.33
2022-11-20T19:32:13.188Z,5.23
2022-11-20T19:34:40.367Z,6.70
2022-11-20T19:37:07.626Z,7.00
2022-11-20T19:39:36.288Z,8.03
2022-11-20T19:42:03.364Z,7.53
2022-11-20T19:44:30.518Z,8.47
2022-11-20T19:46:58.586Z,6.77
2022-11-20T19:49:26.096Z,5.20
2022-11-20T19:51:53.462Z,5.87
2022-11-20T19:54:20.550Z,8.00
2022-11-20T19:56:49.437Z,9.40
2022-11-20T19:59:16.758Z,9.37
2022-11-20T20:01:44.038Z,11.80
2022-11-20T20:04:11.296Z,10.90
2022-11-20T20:06:39.992Z,12.03
2022-11-20T20:09:08.174Z,10.30
2022-11-20T20:11:35.476Z,11.17
2022-11-20T20:14:06.237Z,13.87
2022-11-20T20:16:34.329Z,13.73
2022-11-20T20:19:01.866Z,11.30
2022-11-20T20:21:30.439Z,14.20
2022-11-20T20:23:57.656Z,10.20
2022-11-20T20:26:24.906Z,7.53
2022-11-20T20:28:52.018Z,8.53
2022-11-20T20:31:19.861Z,10.00
2022-11-20T20:33:46.991Z,7.00
2022-11-20T20:36:14.666Z,10.27
2022-11-20T20:38:42.465Z,9.13
2022-11-20T20:41:09.617Z,7.50
2022-11-20T20:43:57.090Z,8.43
2022-11-20T20:46:24.450Z,8.80
2022-11-20T20:48:54.715Z,8.70
2022-11-20T20:51:22.092Z,6.10
2022-11-20T20:53:49.175Z,7.13
2022-11-20T20:56:16.294Z,6.07
2022-11-20T20:58:43.465Z,5.00
2022-11-20T21:01:11.513Z,3.93
2022-11-20T21:03:38.612Z,4.00
2022-11-20T21:06:06.111Z,3.40
2022-11-20T21:08:33.257Z,4.33
2022-11-20T21:11:05.576Z,3.90
2022-11-20T21:13:32.717Z,2.50
2022-11-20T21:15:59.836Z,2.50
2022-11-20T21:18:27.114Z,3.13
2022-11-20T21:21:12.914Z,3.27
2022-11-20T21:23:41.823Z,3.10
2022-11-20T21:26:09.254Z,2.73
2022-11-20T21:28:37.399Z,4.00
2022-11-20T21:31:05.403Z,4.00
2022-11-20T21:33:44.434Z,3.20
2022-11-20T21:36:12.886Z,3.03
2022-11-20T21:38:40.047Z,3.70
2022-11-20T21:41:07.824Z,2.93
2022-11-20T21:43:34.983Z,2.87
2022-11-20T21:46:05.920Z,3.63
2022-11-20T21:48:35.905Z,3.23
2022-11-20T21:51:06.817Z,2.70
2022-11-20T21:53:34.425Z,3.00
2022-11-20T21:56:01.705Z,3.37
2022-11-20T21:58:34.438Z,2.53
2022-11-20T22:01:01.796Z,3.20
2022-11-20T22:03:28.955Z,3.37
2022-11-20T22:05:56.679Z,2.70
2022-11-20T22:08:26.951Z,2.30
2022-11-20T22:11:03.962Z,3.00
2022-11-20T22:13:49.998Z,2.80
2022-11-20T22:16:17.113Z,2.40
2022-11-20T22:18:44.844Z,2.53
2022-11-20T22:21:12.116Z,2.33
2022-11-20T22:23:39.607Z,2.50
2022-11-20T22:26:07.486Z,2.70
2022-11-20T22:28:37.652Z,3.10
2022-11-20T22:31:05.422Z,3.37
2022-11-20T22:33:33.084Z,3.77
2022-11-20T22:36:03.550Z,2.60
2022-11-20T22:38:34.000Z,2.47
2022-11-20T22:41:08.894Z,2.50
2022-11-20T22:43:36.110Z,1.90
2022-11-20T22:46:04.438Z,2.40
2022-11-20T22:48:36.292Z,2.10
2022-11-20T22:51:07.607Z,1.80
2022-11-20T22:53:37.583Z,1.50
2022-11-20T22:56:06.849Z,1.70
2022-11-20T22:58:34.683Z,1.93
2022-11-20T23:01:08.250Z,1.60
2022-11-20T23:03:35.582Z,1.77
2022-11-20T23:06:02.803Z,1.77
2022-11-20T23:08:30.280Z,1.70
2022-11-20T23:11:00.768Z,1.70
2022-11-20T23:13:27.962Z,1.83
2022-11-20T23:15:55.428Z,1.80
2022-11-20T23:18:22.756Z,1.80
2022-11-20T23:20:49.932Z,1.53
2022-11-20T23:23:17.002Z,2.37
2022-11-20T23:25:44.174Z,2.37
2022-11-20T23:28:11.303Z,3.73
2022-11-20T23:30:38.422Z,8.47
2022-11-20T23:33:05.700Z,2.50
2022-11-20T23:35:32.827Z,6.67
2022-11-20T23:38:00.131Z,2.27
2022-11-20T23:40:27.311Z,3.33
2022-11-20T23:43:17.868Z,1.67
2022-11-20T23:45:48.807Z,2.33
2022-11-20T23:48:16.351Z,1.57
2022-11-20T23:50:43.653Z,3.30
2022-11-20T23:53:11.214Z,3.80
2022-11-20T23:55:38.379Z,2.00
2022-11-20T23:58:05.688Z,3.70
